Terminal Aerodrome Forecast
Issued by NWS

Home | Current Version | Previous Version | Text Only | Print | Product List | Glossary On
Versions: 1 2 3 4 5 6 7 8 9 10 11 12 13
000
FTUS45 KRIW 270500
TAFBPI
TAF
KBPI 270529Z 2706/2806 VRB04KT 4SM -SN BKN040
     FM270800 33004KT P6SM SCT040
     FM270900 35005KT P6SM VCFG SCT004 SCT040
     FM271900 33009KT P6SM SCT040 BKN120
     FM280500 VRB04KT P6SM VCSH BKN040=

USA.gov is the U.S. government's official web portal to all federal, state and local government web resources and services.